International Falls Memorial, MN

11:06 PM CST on December 09, 2016 (GMT -0600)
Wayside Lane | | Change Station

Elev 1115 ft 48.60 °N, 93.42 °W | Updated 1 minute ago

Overcast
Overcast
-3.3 °F
Feels Like -3 °F
N
0.0
Wind Variable Wind from WSW
Gusts 1.0 mph

Today
High -- | Low -- °F
--% Chance of Precip.
Yesterday
High -- | Low -- °F
Precip. -- in
Pressure 30.55 in
Visibility 10.0 miles
Clouds Overcast 4100 ft
Windchill -3 °F
Dew Point -6 °F
Humidity 87%
Rainfall in
Snow Depth Not available.
7:54 AM 4:18 PM
Waxing Gibbous, 80% visible
METAR KINL 100455Z AUTO 26006KT 10SM OVC041 M20/M22 A3043 RMK AO2 SLP343 T12001222
Pressure 30.55 in
Visibility 10.0 miles
Clouds Overcast 4100 ft
Windchill -3 °F
Dew Point -6 °F
Humidity 87%
Rainfall in
Snow Depth Not available.
7:54 AM 4:18 PM
Waxing Gibbous, 80% visible
METAR KINL 100455Z AUTO 26006KT 10SM OVC041 M20/M22 A3043 RMK AO2 SLP343 T12001222

10-Day Weather Forecast

Almanac

Astronomy

Dec. 09, 2016 Rise Set
Actual Time
Civil Twilight
Nautical Twilight
Astronomical Twilight
Moon
Length of Visible Light
Length of Day
Tomorrow will be .
, % of the Moon is Illuminated

Today's Extremes

State Highs State Lows

Community

WunderPhotos

Upload Photos

1,956,529 photos uploaded!

WunderBlog® & News

Nearby

Air Quality

  Air Quality AQ Index Pollutant
Not available.

Snow Depth

Station Depth Elevation

Earthquake Activity

City Distance Mag. Time & Date
Minimum magnitude displayed is 2.5.

Coastal Water Temperatures

Place Temperature

Stations

Nearby Weather Stations

Station Location Temp. Windchill Dew Point Humidity Wind Precip. Elev Updated Type
                   

Watches & Warnings

There are currently no watches in effect.